Time;durP1;ratioP1;P1;durP2;ratioP2;P2;SDS_P1;SDS_P2;PMS_P1;PMS_P2;Temp;Humidity;BMP_temperature;BMP_pressure;BME280_temperature;BME280_humidity;BME280_pressure;Samples;Min_cycle;Max_cycle;Signal;HPM_P1;HPM_P2
2022/09/13 00:01:03;;;;;;;4.67;4.37;;;;;;;18.36;64.30;99137.94;5051567;28;20194;-69
2022/09/13 00:03:30;;;;;;;4.47;4.23;;;;;;;18.30;64.52;99134.34;5051736;28;20248;-69
2022/09/13 00:05:56;;;;;;;4.33;4.13;;;;;;;18.31;64.79;99137.84;5051425;28;20201;-69
2022/09/13 00:08:23;;;;;;;4.80;4.37;;;;;;;18.23;65.05;99130.25;5051368;28;20643;-69
2022/09/13 00:10:51;;;;;;;4.80;3.93;;;;;;;18.09;65.25;99134.41;5051504;28;20200;-69
2022/09/13 00:13:18;;;;;;;5.03;4.73;;;;;;;18.13;64.92;99125.56;5051449;28;20632;-69
2022/09/13 00:15:46;;;;;;;4.77;4.50;;;;;;;18.21;64.62;99124.31;5051429;28;20205;-69
2022/09/13 00:18:13;;;;;;;4.73;4.53;;;;;;;18.10;64.93;99125.28;5051054;28;20246;-68
2022/09/13 00:20:40;;;;;;;4.57;4.37;;;;;;;18.01;65.12;99116.03;5064545;28;20249;-69
2022/09/13 00:23:07;;;;;;;4.13;3.93;;;;;;;17.99;64.93;99118.97;5071368;28;20203;-68
2022/09/13 00:25:34;;;;;;;4.17;4.00;;;;;;;18.05;64.85;99111.78;5071419;28;20188;-68
2022/09/13 00:28:03;;;;;;;4.40;4.00;;;;;;;17.95;64.90;99111.66;5070583;28;20734;-68
2022/09/13 00:30:30;;;;;;;4.43;4.13;;;;;;;17.89;65.22;99107.31;5071053;28;20192;-68
2022/09/13 00:32:57;;;;;;;4.73;4.37;;;;;;;17.85;65.88;99100.81;5071285;28;20265;-68
2022/09/13 00:35:23;;;;;;;3.90;3.70;;;;;;;17.86;65.44;99102.44;5071525;28;20591;-68
2022/09/13 00:37:51;;;;;;;4.03;3.83;;;;;;;17.89;65.53;99102.72;5070955;28;20199;-68
2022/09/13 00:40:17;;;;;;;4.40;4.20;;;;;;;17.82;65.85;99112.06;5071149;28;20228;-69
2022/09/13 00:42:44;;;;;;;4.23;3.93;;;;;;;17.80;65.71;99114.19;5071047;28;20196;-69
2022/09/13 00:45:19;;;;;;;4.27;3.87;;;;;;;17.78;65.89;99110.94;5070863;28;20621;-69
2022/09/13 00:47:49;;;;;;;3.87;3.67;;;;;;;17.82;65.69;99101.31;5071350;28;20248;-69
2022/09/13 00:50:21;;;;;;;4.90;3.77;;;;;;;17.77;66.27;99110.13;5071332;28;20204;-69
2022/09/13 00:52:51;;;;;;;3.97;3.80;;;;;;;17.81;65.91;99110.44;5071278;28;20188;-70
2022/09/13 00:55:22;;;;;;;3.77;3.57;;;;;;;17.79;66.20;99109.88;5070879;28;20998;-70
2022/09/13 00:57:50;;;;;;;3.70;3.60;;;;;;;17.81;66.32;99102.38;5071349;28;20305;-70
2022/09/13 01:00:19;;;;;;;4.40;4.10;;;;;;;17.85;66.19;99114.25;5074531;28;20224;-69
2022/09/13 01:02:50;;;;;;;3.80;3.60;;;;;;;17.86;66.15;99102.44;5074650;28;20253;-70
2022/09/13 01:05:19;;;;;;;3.80;3.50;;;;;;;17.80;66.46;99095.41;5074700;28;20192;-69
2022/09/13 01:07:46;;;;;;;3.60;3.40;;;;;;;17.80;66.64;99098.09;5074696;28;20188;-69
2022/09/13 01:10:14;;;;;;;3.30;3.20;;;;;;;17.84;66.72;99093.81;5074671;28;20238;-69
2022/09/13 01:12:45;;;;;;;3.60;3.40;;;;;;;17.73;66.54;99098.25;5074144;28;20197;-69
2022/09/13 01:15:12;;;;;;;3.10;3.00;;;;;;;17.81;66.26;99099.69;5074193;28;20188;-69
2022/09/13 01:17:41;;;;;;;3.53;3.30;;;;;;;17.76;66.49;99094.28;5074499;28;20260;-69
2022/09/13 01:20:10;;;;;;;3.43;3.33;;;;;;;17.77;66.69;99101.25;5064877;28;20279;-69
2022/09/13 01:23:07;;;;;;;4.07;3.20;;;;;;;17.76;66.71;99091.59;5054240;28;20196;-70
2022/09/13 01:26:05;;;;;;;3.30;3.20;;;;;;;17.77;66.55;99101.25;5053960;28;20711;-70
2022/09/13 01:29:08;;;;;;;3.40;3.20;;;;;;;17.75;66.46;99100.69;5053954;28;20186;-69
2022/09/13 01:31:44;;;;;;;3.60;3.40;;;;;;;17.78;66.56;99105.56;5054047;28;20192;-71
2022/09/13 01:34:25;;;;;;;3.43;3.33;;;;;;;17.79;66.34;99096.44;5053887;28;20611;-70
2022/09/13 01:37:14;;;;;;;3.63;3.40;;;;;;;17.79;66.32;99107.19;5054112;28;20199;-71
2022/09/13 01:39:59;;;;;;;4.27;3.87;;;;;;;17.76;66.25;99092.38;5054049;28;20759;-70
2022/09/13 01:42:37;;;;;;;3.57;3.37;;;;;;;17.70;66.38;99095.25;5054263;28;20193;-70
2022/09/13 01:45:12;;;;;;;4.10;3.70;;;;;;;17.67;66.52;99098.44;5053942;28;20184;-70
2022/09/13 01:47:49;;;;;;;3.50;3.40;;;;;;;17.67;66.43;99093.06;5053518;28;20184;-70
2022/09/13 01:50:24;;;;;;;3.10;2.90;;;;;;;17.61;66.83;99094.09;5053758;28;20239;-70
2022/09/13 01:52:56;;;;;;;3.70;3.40;;;;;;;17.59;66.57;99086.28;5053716;28;20242;-70
2022/09/13 01:55:31;;;;;;;3.87;3.30;;;;;;;17.58;67.04;99094.59;5053968;28;20185;-70
2022/09/13 01:58:07;;;;;;;4.10;3.67;;;;;;;17.55;67.13;99084.34;5053952;28;20249;-71
2022/09/13 02:00:39;;;;;;;4.67;3.50;;;;;;;17.57;66.60;99093.78;5053296;28;20267;-70
2022/09/13 02:03:13;;;;;;;3.93;3.73;;;;;;;17.61;66.79;99096.78;5053165;28;20184;-70
2022/09/13 02:05:45;;;;;;;3.43;3.30;;;;;;;17.62;66.49;99095.72;5053720;28;20194;-70
2022/09/13 02:08:17;;;;;;;4.10;3.70;;;;;;;17.55;66.74;99095.91;5052956;28;20184;-69
2022/09/13 02:10:48;;;;;;;3.67;3.43;;;;;;;17.58;66.71;99095.41;5052230;28;20288;-69
2022/09/13 02:13:21;;;;;;;3.30;3.10;;;;;;;17.52;66.83;99090.22;5052928;28;20635;-70
2022/09/13 02:15:51;;;;;;;3.47;3.30;;;;;;;17.52;67.12;99084.84;5053428;28;20189;-70
2022/09/13 02:18:25;;;;;;;3.47;3.20;;;;;;;17.53;67.24;99081.09;5052787;28;20202;-70
2022/09/13 02:20:58;;;;;;;3.93;3.60;;;;;;;17.61;66.82;99083.34;5067797;28;20212;-70
2022/09/13 02:23:34;;;;;;;3.50;3.40;;;;;;;17.60;66.88;99081.72;5073081;28;20188;-70
2022/09/13 02:26:04;;;;;;;3.37;3.17;;;;;;;17.54;66.91;99077.34;5073200;28;20257;-70
2022/09/13 02:28:35;;;;;;;3.40;3.20;;;;;;;17.52;67.08;99076.81;5072671;28;20670;-69
2022/09/13 02:31:04;;;;;;;3.67;3.47;;;;;;;17.60;66.35;99081.72;5072719;28;20652;-70
2022/09/13 02:33:35;;;;;;;3.30;3.20;;;;;;;17.53;66.72;99086.47;5072821;28;20275;-70
2022/09/13 02:36:08;;;;;;;3.67;3.37;;;;;;;17.67;65.98;99087.69;5073057;28;20246;-69
2022/09/13 02:38:43;;;;;;;3.50;3.40;;;;;;;17.50;66.37;99081.59;5072372;28;20651;-69
2022/09/13 02:41:18;;;;;;;3.80;3.47;;;;;;;17.55;65.87;99087.00;5072524;28;20191;-70
2022/09/13 02:43:50;;;;;;;3.53;3.33;;;;;;;17.58;65.64;99083.84;5072957;28;20298;-69
2022/09/13 02:46:26;;;;;;;6.33;3.30;;;;;;;17.64;65.44;99082.84;5072404;28;20237;-69
2022/09/13 02:49:01;;;;;;;3.47;3.37;;;;;;;17.53;65.54;99081.91;5072818;28;20237;-69
2022/09/13 02:51:35;;;;;;;3.50;3.30;;;;;;;17.58;65.96;99094.59;5072780;28;20226;-69
2022/09/13 02:54:14;;;;;;;3.67;3.43;;;;;;;17.53;65.11;99091.84;5072966;28;20190;-68
2022/09/13 02:56:51;;;;;;;3.40;3.30;;;;;;;17.52;65.27;99100.97;5072134;28;20192;-69
2022/09/13 02:59:20;;;;;;;3.87;3.67;;;;;;;17.48;65.49;99091.78;5072226;28;20216;-69
2022/09/13 03:01:52;;;;;;;3.43;3.30;;;;;;;17.55;64.84;99101.28;5071915;28;20241;-68
2022/09/13 03:04:20;;;;;;;3.53;3.27;;;;;;;17.55;65.11;99089.69;5072644;28;20190;-70
2022/09/13 03:06:49;;;;;;;3.87;3.67;;;;;;;17.45;65.07;99095.78;5071891;28;20721;-69
2022/09/13 03:09:17;;;;;;;3.63;3.43;;;;;;;17.43;65.19;99097.09;5072376;28;20780;-68
2022/09/13 03:11:57;;;;;;;3.67;3.47;;;;;;;17.45;65.54;99090.41;5071989;28;20663;-68
2022/09/13 03:14:35;;;;;;;3.87;3.67;;;;;;;17.41;65.35;99093.84;5072209;28;20239;-68
2022/09/13 03:17:15;;;;;;;3.60;3.30;;;;;;;17.34;65.60;99103.91;5072187;28;20250;-69
2022/09/13 03:20:18;;;;;;;3.80;3.50;;;;;;;17.29;65.41;99102.00;5066356;28;20201;-68
2022/09/13 03:23:17;;;;;;;3.83;3.63;;;;;;;17.31;65.24;99105.22;5050174;28;20196;-69
2022/09/13 03:26:04;;;;;;;3.70;3.40;;;;;;;17.25;65.41;99108.09;5052262;28;20311;-69
2022/09/13 03:28:39;;;;;;;3.80;3.60;;;;;;;17.24;65.22;99114.53;5052024;28;20186;-69
2022/09/13 03:31:11;;;;;;;3.97;3.67;;;;;;;17.22;65.02;99105.88;5052168;28;20248;-68
2022/09/13 03:33:45;;;;;;;4.13;3.83;;;;;;;17.37;65.05;99112.28;5052205;28;20270;-68
2022/09/13 03:36:18;;;;;;;3.60;3.40;;;;;;;17.42;65.26;99107.03;5052193;28;20184;-68
2022/09/13 03:38:56;;;;;;;4.13;3.83;;;;;;;17.39;64.60;99112.06;5052090;28;20185;-69
2022/09/13 03:41:27;;;;;;;4.27;3.97;;;;;;;17.29;65.39;99106.53;5051525;28;20262;-69
2022/09/13 03:43:58;;;;;;;4.30;3.87;;;;;;;17.32;65.36;99122.94;5052126;28;20185;-69
2022/09/13 03:46:31;;;;;;;4.23;3.93;;;;;;;17.20;65.73;99129.50;5051301;28;20271;-69
2022/09/13 03:49:01;;;;;;;4.47;4.17;;;;;;;17.17;66.18;99121.94;5051525;28;20197;-69
2022/09/13 03:51:27;;;;;;;3.80;3.50;;;;;;;17.19;65.84;99127.88;5051355;28;20254;-69
2022/09/13 03:54:01;;;;;;;3.97;3.77;;;;;;;17.14;65.79;99127.78;5051688;28;20260;-69
2022/09/13 03:56:27;;;;;;;4.40;4.10;;;;;;;17.08;66.42;99120.72;5051955;28;20195;-68
2022/09/13 03:58:54;;;;;;;4.30;4.00;;;;;;;16.97;66.50;99122.47;5051537;28;20739;-68
2022/09/13 04:01:23;;;;;;;4.83;4.07;;;;;;;16.81;67.45;99117.91;5051673;28;20650;-68
2022/09/13 04:03:50;;;;;;;4.30;3.90;;;;;;;16.81;67.85;99119.78;5051246;28;20192;-68
2022/09/13 04:06:17;;;;;;;4.53;4.33;;;;;;;16.76;68.31;99119.72;5051337;28;20734;-69
2022/09/13 04:08:44;;;;;;;3.53;3.40;;;;;;;16.79;68.31;99108.50;5051501;28;20284;-69
2022/09/13 04:11:12;;;;;;;4.37;3.97;;;;;;;16.75;68.14;99113.53;5051382;28;20197;-69
2022/09/13 04:13:40;;;;;;;5.20;3.20;;;;;;;16.80;68.18;99120.84;5051140;28;20666;-69
2022/09/13 04:16:07;;;;;;;4.13;3.60;;;;;;;16.83;67.93;99118.50;5051525;28;20197;-69
2022/09/13 04:18:34;;;;;;;5.67;4.07;;;;;;;16.83;68.09;99112.31;5051574;28;20200;-70
2022/09/13 04:21:03;;;;;;;4.87;4.27;;;;;;;16.85;68.14;99115.56;5067927;28;20221;-68
2022/09/13 04:23:30;;;;;;;4.87;3.63;;;;;;;17.10;67.59;99118.59;5071372;28;20639;-70
2022/09/13 04:26:01;;;;;;;3.77;3.57;;;;;;;17.58;66.23;99122.25;5071117;28;20664;-70
2022/09/13 04:28:29;;;;;;;3.60;3.40;;;;;;;18.05;64.03;99127.91;5071118;28;20238;-72
2022/09/13 04:30:56;;;;;;;4.00;3.57;;;;;;;18.42;62.70;99134.22;5071135;28;20664;-73
2022/09/13 04:33:23;;;;;;;4.57;3.67;;;;;;;18.73;61.10;99134.22;5072887;28;20241;-70
2022/09/13 04:35:54;;;;;;;5.93;3.50;;;;;;;19.17;59.50;99138.34;5075376;28;20191;-71
2022/09/13 04:38:21;;;;;;;4.33;3.20;;;;;;;19.45;58.41;99135.28;5075132;28;20267;-71
2022/09/13 04:40:53;;;;;;;4.07;3.70;;;;;;;19.76;57.65;99137.03;5074627;28;20232;-70
2022/09/13 04:43:19;;;;;;;4.40;3.20;;;;;;;20.21;55.81;99139.09;5074707;28;20551;-70
2022/09/13 04:45:47;;;;;;;3.73;3.50;;;;;;;20.44;55.32;99146.69;5074576;28;20196;-70
2022/09/13 04:48:15;;;;;;;3.90;3.70;;;;;;;20.44;54.80;99152.91;5074760;28;20196;-70
2022/09/13 04:50:42;;;;;;;4.30;3.93;;;;;;;20.72;54.07;99151.56;5074401;28;20202;-70
2022/09/13 04:53:08;;;;;;;5.37;3.13;;;;;;;20.96;54.15;99152.69;5074779;28;20202;-70
2022/09/13 04:55:35;;;;;;;7.70;3.57;;;;;;;21.32;52.76;99156.16;5074407;28;20672;-71
2022/09/13 04:58:02;;;;;;;6.47;3.07;;;;;;;21.66;52.47;99167.94;5074566;28;20268;-72
2022/09/13 05:00:30;;;;;;;3.37;3.07;;;;;;;22.10;50.63;99168.88;5074170;28;20219;-70
2022/09/13 05:02:58;;;;;;;3.47;3.17;;;;;;;22.03;50.62;99157.53;5074131;28;20286;-73
2022/09/13 05:05:27;;;;;;;3.70;3.33;;;;;;;22.64;48.85;99167.78;5074584;28;20253;-71
2022/09/13 05:07:55;;;;;;;4.43;3.23;;;;;;;23.28;47.64;99181.88;5073989;28;20625;-69
2022/09/13 05:10:21;;;;;;;7.30;3.03;;;;;;;23.95;49.06;99170.88;5074263;28;20192;-70
2022/09/13 05:12:48;;;;;;;4.53;3.03;;;;;;;24.55;43.64;99186.31;5073993;28;20291;-72
2022/09/13 05:15:15;;;;;;;4.00;2.73;;;;;;;24.85;44.84;99176.94;5071173;28;20189;-71
2022/09/13 05:17:42;;;;;;;4.40;3.20;;;;;;;25.17;41.97;99185.09;5068434;28;20585;-70
2022/09/13 05:20:11;;;;;;;4.20;3.23;;;;;;;25.16;41.40;99188.13;5066364;28;20223;-70
2022/09/13 05:22:38;;;;;;;3.30;3.10;;;;;;;25.24;41.51;99190.16;5064555;28;20249;-69
2022/09/13 05:25:06;;;;;;;3.33;3.00;;;;;;;25.02;41.49;99188.88;5069597;28;20799;-71
2022/09/13 05:27:32;;;;;;;3.67;2.90;;;;;;;24.82;42.67;99189.19;5073806;28;20640;-72
2022/09/13 05:29:59;;;;;;;6.27;3.60;;;;;;;25.26;41.88;99196.06;5073820;28;20195;-71
2022/09/13 05:32:26;;;;;;;3.00;2.90;;;;;;;25.63;41.07;99190.56;5073822;28;20200;-72
2022/09/13 05:34:53;;;;;;;4.90;2.90;;;;;;;25.72;40.90;99184.09;5073663;28;20253;-72
2022/09/13 05:37:21;;;;;;;3.47;3.00;;;;;;;26.01;40.37;99186.56;5074035;28;20195;-72
2022/09/13 05:39:48;;;;;;;5.00;3.10;;;;;;;26.26;40.10;99177.84;5073595;28;20195;-71
2022/09/13 05:42:14;;;;;;;3.60;3.30;;;;;;;26.46;39.29;99188.31;5064961;28;20654;-70
2022/09/13 05:44:41;;;;;;;3.57;3.33;;;;;;;26.25;39.14;99190.66;5052670;28;20200;-71
2022/09/13 05:47:08;;;;;;;4.80;3.47;;;;;;;26.15;39.95;99171.00;5053471;28;20688;-71
2022/09/13 05:49:35;;;;;;;4.73;3.10;;;;;;;25.50;41.04;99177.72;5053431;28;20243;-69
2022/09/13 05:52:02;;;;;;;4.43;4.13;;;;;;;25.26;41.67;99169.69;5053871;28;20264;-71
2022/09/13 05:54:30;;;;;;;3.60;3.40;;;;;;;25.02;42.11;99175.28;5053669;28;20255;-70
2022/09/13 05:56:57;;;;;;;4.10;3.72;;;;;;;24.63;43.64;99166.66;5053592;28;20518;-72
2022/09/13 05:59:24;;;;;;;5.70;3.37;;;;;;;25.08;42.79;99169.75;5048839;28;20202;-69
2022/09/13 06:01:50;;;;;;;5.60;3.60;;;;;;;25.43;42.37;99175.41;5057105;28;20244;-73
2022/09/13 06:04:17;;;;;;;3.47;3.00;;;;;;;25.47;41.63;99181.84;5059311;28;20209;-70
2022/09/13 06:06:44;;;;;;;3.73;3.53;;;;;;;24.93;42.51;99178.97;5063465;28;20735;-71
2022/09/13 06:09:11;;;;;;;3.33;3.07;;;;;;;25.13;42.29;99175.09;5073337;28;20234;-70
2022/09/13 06:11:40;;;;;;;3.87;3.67;;;;;;;25.60;41.91;99178.34;5071222;28;20187;-70
2022/09/13 06:14:07;;;;;;;5.73;3.43;;;;;;;25.67;41.14;99183.38;5053196;28;20207;-72
2022/09/13 06:16:34;;;;;;;5.67;2.93;;;;;;;25.32;41.60;99173.19;5052846;28;20226;-70
2022/09/13 06:19:00;;;;;;;4.10;3.27;;;;;;;25.33;41.70;99180.22;5057405;28;20252;-70
2022/09/13 06:21:27;;;;;;;2.97;2.80;;;;;;;26.01;41.84;99189.28;5052484;28;20301;-68
2022/09/13 06:23:54;;;;;;;5.20;3.10;;;;;;;25.31;41.83;99182.44;5052872;28;20196;-67
2022/09/13 06:26:22;;;;;;;3.37;3.17;;;;;;;25.71;42.47;99181.66;5052675;28;20195;-67
2022/09/13 06:28:52;;;;;;;4.33;3.10;;;;;;;26.35;39.92;99192.34;5052686;28;20208;-69
2022/09/13 06:31:21;;;;;;;5.43;3.40;;;;;;;26.30;39.72;99187.81;5053080;28;20258;-68
2022/09/13 06:33:48;;;;;;;4.97;3.37;;;;;;;25.81;40.32;99187.75;5052307;28;20200;-68
2022/09/13 06:36:18;;;;;;;4.60;3.60;;;;;;;25.83;40.58;99184.69;5071962;28;20262;-68
2022/09/13 06:38:45;;;;;;;3.10;2.80;;;;;;;25.49;40.88;99192.44;5072353;28;20203;-68
2022/09/13 06:41:14;;;;;;;4.30;3.00;;;;;;;24.96;41.84;99186.53;5072491;28;20226;-68
2022/09/13 06:43:41;;;;;;;8.00;2.83;;;;;;;25.53;41.75;99190.75;5057139;28;20199;-68
2022/09/13 06:46:10;;;;;;;2.77;2.57;;;;;;;25.27;40.96;99197.72;5058324;28;20694;-67
2022/09/13 06:48:39;;;;;;;4.60;2.70;;;;;;;25.13;41.30;99202.28;5056772;28;20195;-67
2022/09/13 06:51:08;;;;;;;7.67;2.50;;;;;;;25.80;41.11;99196.22;5058175;28;20207;-68
2022/09/13 06:53:36;;;;;;;2.67;2.47;;;;;;;26.89;39.03;99205.84;5056214;28;20214;-69
2022/09/13 06:56:05;;;;;;;2.90;2.70;;;;;;;27.42;36.74;99209.44;5072245;28;20238;-67
2022/09/13 06:58:33;;;;;;;18.50;3.60;;;;;;;27.09;36.75;99219.81;5072179;28;20983;-67
2022/09/13 07:01:11;;;;;;;5.10;2.33;;;;;;;27.08;36.63;99206.47;5072698;28;20282;-67
2022/09/13 07:03:39;;;;;;;7.27;2.87;;;;;;;26.25;38.27;99207.00;5056182;28;20671;-68
2022/09/13 07:06:14;;;;;;;5.80;2.63;;;;;;;25.63;39.58;99196.00;5052221;28;20204;-68
2022/09/13 07:08:41;;;;;;;3.90;2.50;;;;;;;26.45;38.99;99205.78;5052580;28;20281;-68
2022/09/13 07:11:09;;;;;;;7.57;2.70;;;;;;;26.31;38.87;99200.34;5052328;28;20633;-68
2022/09/13 07:13:36;;;;;;;4.30;2.60;;;;;;;26.35;38.66;99208.69;5052950;28;20193;-68
2022/09/13 07:16:04;;;;;;;2.67;2.50;;;;;;;26.73;38.42;99205.41;5052105;28;20196;-68
2022/09/13 07:18:33;;;;;;;5.10;2.43;;;;;;;26.83;37.84;99218.78;5052152;28;20551;-68
2022/09/13 07:21:02;;;;;;;7.43;2.90;;;;;;;26.17;38.51;99215.09;5065982;28;20224;-67
2022/09/13 07:23:29;;;;;;;2.67;2.30;;;;;;;26.33;38.31;99216.38;5072278;28;20249;-67
2022/09/13 07:26:01;;;;;;;3.13;2.50;;;;;;;26.64;37.92;99220.88;5072268;28;20249;-67
2022/09/13 07:28:30;;;;;;;2.30;2.20;;;;;;;25.90;39.73;99218.59;5072145;28;20237;-67
2022/09/13 07:30:58;;;;;;;4.87;2.50;;;;;;;26.51;39.42;99221.69;5070543;28;20261;-65
2022/09/13 07:33:25;;;;;;;2.30;2.20;;;;;;;27.11;39.00;99214.84;5071884;28;20279;-66
2022/09/13 07:35:58;;;;;;;4.17;2.60;;;;;;;27.28;37.27;99234.06;5072111;28;20659;-66
2022/09/13 07:38:25;;;;;;;3.50;1.90;;;;;;;26.77;37.26;99230.13;5072323;28;20191;-65
2022/09/13 07:40:57;;;;;;;2.83;2.47;;;;;;;26.97;36.24;99233.19;5072076;28;20767;-65
2022/09/13 07:43:24;;;;;;;3.13;2.03;;;;;;;26.97;36.37;99226.91;5062208;28;20597;-65
2022/09/13 07:45:57;;;;;;;2.33;2.03;;;;;;;27.47;36.43;99226.50;5051235;28;20249;-66
2022/09/13 07:48:25;;;;;;;6.03;2.00;;;;;;;27.39;36.12;99229.16;5051929;28;20188;-66
2022/09/13 07:51:04;;;;;;;5.50;3.13;;;;;;;27.28;36.72;99225.09;5060672;28;20200;-66
2022/09/13 07:53:32;;;;;;;2.40;2.30;;;;;;;27.81;36.71;99220.41;5056412;28;20177;-67
2022/09/13 07:56:03;;;;;;;5.10;2.17;;;;;;;27.70;36.23;99224.53;5070425;28;20195;-69
2022/09/13 07:58:30;;;;;;;4.30;2.40;;;;;;;27.23;37.84;99227.97;5070723;28;20257;-67
2022/09/13 08:01:03;;;;;;;6.77;2.43;;;;;;;27.90;36.18;99224.00;5070909;28;20780;-66
2022/09/13 08:03:30;;;;;;;2.47;2.17;;;;;;;27.51;36.32;99227.47;5071673;28;20363;-65
2022/09/13 08:05:56;;;;;;;3.07;2.87;;;;;;;28.21;37.21;99222.00;5072069;28;20192;-67
2022/09/13 08:08:24;;;;;;;4.73;2.60;;;;;;;27.70;35.07;99230.81;5073064;28;20683;-66
2022/09/13 08:10:51;;;;;;;5.13;2.53;;;;;;;27.86;36.38;99215.66;5074839;28;20249;-69
2022/09/13 08:13:18;;;;;;;2.23;2.13;;;;;;;28.27;33.98;99223.47;5072551;28;20265;-69
2022/09/13 08:15:45;;;;;;;5.03;2.07;;;;;;;27.76;36.57;99212.38;5074588;28;20196;-66
2022/09/13 08:18:12;;;;;;;2.57;2.07;;;;;;;27.62;36.19;99206.19;5056806;28;20188;-64
2022/09/13 08:20:39;;;;;;;2.40;2.30;;;;;;;28.45;34.88;99219.69;5066978;28;20274;-65
2022/09/13 08:23:07;;;;;;;3.50;2.30;;;;;;;27.86;34.96;99217.56;5075374;28;20192;-66
2022/09/13 08:25:37;;;;;;;3.50;2.10;;;;;;;28.06;33.96;99222.47;5071059;28;20188;-73
2022/09/13 08:28:06;;;;;;;4.27;2.33;;;;;;;27.24;34.91;99213.19;5061764;28;20192;-67
2022/09/13 08:30:36;;;;;;;2.47;2.27;;;;;;;27.84;35.14;99212.41;5060087;28;20275;-69
2022/09/13 08:33:02;;;;;;;2.40;2.20;;;;;;;28.63;34.37;99210.41;5073322;28;20199;-68
2022/09/13 08:35:29;;;;;;;2.00;1.90;;;;;;;28.81;34.04;99204.63;5060351;28;20671;-69
2022/09/13 08:37:56;;;;;;;4.43;2.37;;;;;;;28.44;33.53;99204.41;5053331;28;20265;-67
2022/09/13 08:40:25;;;;;;;2.63;2.10;;;;;;;28.75;32.47;99214.09;5051402;28;20201;-78
2022/09/13 08:43:02;;;;;;;5.53;2.10;;;;;;;28.04;33.61;99211.03;5071807;28;20314;-65
2022/09/13 08:45:28;;;;;;;3.27;1.73;;;;;;;28.14;34.53;99197.88;5074991;28;20184;-64
2022/09/13 08:47:59;;;;;;;2.20;1.90;;;;;;;28.52;34.02;99198.16;5074963;28;20196;-66
2022/09/13 08:50:30;;;;;;;2.93;1.90;;;;;;;27.62;33.64;99206.19;5067918;28;20243;-66
2022/09/13 08:53:18;;;;;;;1.90;1.80;;;;;;;26.98;33.79;99195.81;5054995;28;20207;-68
2022/09/13 08:55:56;;;;;;;3.57;1.80;;;;;;;26.71;34.59;99196.72;5053056;28;20582;-66
2022/09/13 08:58:42;;;;;;;1.80;1.70;;;;;;;27.26;33.54;99198.13;5053786;28;20188;-67
2022/09/13 09:01:18;;;;;;;1.77;1.70;;;;;;;27.49;31.72;99199.72;5053681;28;20213;-68
2022/09/13 09:03:52;;;;;;;2.13;2.00;;;;;;;27.22;31.80;99179.97;5062576;28;20180;-70
2022/09/13 09:06:21;;;;;;;1.87;1.70;;;;;;;27.24;31.91;99191.38;5073724;28;20187;-66
2022/09/13 09:08:52;;;;;;;2.20;2.10;;;;;;;27.52;31.96;99184.63;5073102;28;20715;-66
2022/09/13 09:11:29;;;;;;;1.83;1.73;;;;;;;28.26;32.54;99183.63;5073945;28;20188;-67
2022/09/13 09:14:03;;;;;;;1.57;1.50;;;;;;;28.27;29.99;99185.22;5074356;28;20547;-66
2022/09/13 09:16:36;;;;;;;3.40;1.80;;;;;;;28.66;32.75;99180.47;5067812;28;20184;-67
2022/09/13 09:19:14;;;;;;;2.23;1.60;;;;;;;28.10;30.04;99177.00;5073288;28;20591;-67
2022/09/13 09:21:42;;;;;;;2.67;1.70;;;;;;;27.67;30.67;99186.94;5065851;28;20273;-69
2022/09/13 09:24:17;;;;;;;1.87;1.67;;;;;;;26.88;31.77;99175.06;5073029;28;20611;-66
2022/09/13 09:26:44;;;;;;;2.10;1.90;;;;;;;27.12;31.60;99172.00;5076972;28;20718;-67
2022/09/13 09:29:18;;;;;;;2.67;1.87;;;;;;;26.46;33.50;99169.22;5090538;28;20230;-66
2022/09/13 09:32:07;;;;;;;4.00;1.80;;;;;;;26.39;32.55;99172.38;5077616;28;20614;-65
2022/09/13 09:34:47;;;;;;;1.80;1.70;;;;;;;25.67;32.86;99167.06;5084509;28;20191;-69
2022/09/13 09:37:19;;;;;;;9.83;1.70;;;;;;;25.37;34.01;99170.38;5093727;28;20183;-68
2022/09/13 09:39:46;;;;;;;4.20;1.53;;;;;;;25.72;34.61;99166.97;5092532;28;20179;-69
2022/09/13 09:42:17;;;;;;;2.23;1.93;;;;;;;25.70;33.54;99171.91;5091991;28;20215;-69
2022/09/13 09:44:48;;;;;;;1.80;1.70;;;;;;;25.26;34.17;99164.25;5053754;28;20188;-69
2022/09/13 09:47:19;;;;;;;2.30;2.20;;;;;;;25.13;34.78;99165.03;5053568;28;20254;-68
2022/09/13 09:52:37;;;;;;;3.63;2.47;;;;;;;25.21;35.60;99166.25;5073143;28;20206;-69
2022/09/13 09:55:14;;;;;;;2.00;1.90;;;;;;;25.62;37.09;99169.88;5082715;28;20191;-72
2022/09/13 09:57:55;;;;;;;2.70;2.10;;;;;;;25.67;35.65;99167.06;5057811;28;20195;-69
2022/09/13 10:00:26;;;;;;;2.87;2.23;;;;;;;26.05;34.14;99176.69;5051388;28;20192;-69
2022/09/13 10:02:56;;;;;;;10.17;5.37;;;;;;;26.34;33.52;99177.13;5054429;28;20216;-69
2022/09/13 10:05:25;;;;;;;3.87;3.47;;;;;;;26.51;33.52;99175.38;5073074;28;20184;-68
2022/09/13 10:08:01;;;;;;;11.13;6.93;;;;;;;26.71;32.88;99179.56;5071915;28;20234;-72
2022/09/13 10:10:36;;;;;;;5.73;1.47;;;;;;;26.49;32.75;99171.31;5072320;28;20180;-71
2022/09/13 10:13:07;;;;;;;3.53;2.50;;;;;;;26.59;34.12;99173.84;5072523;28;20187;-68
2022/09/13 10:15:35;;;;;;;2.60;1.77;;;;;;;26.73;34.41;99172.69;5072419;28;20184;-69
2022/09/13 10:18:15;;;;;;;4.63;1.40;;;;;;;27.04;34.87;99162.69;5072830;28;20188;-71
2022/09/13 10:20:43;;;;;;;4.47;1.80;;;;;;;27.28;33.51;99167.81;5058719;28;20639;-71
2022/09/13 10:23:21;;;;;;;1.67;1.57;;;;;;;27.43;32.96;99165.47;5060507;28;20644;-70
2022/09/13 10:26:04;;;;;;;1.90;1.80;;;;;;;27.55;31.34;99157.50;5071193;28;20214;-70
2022/09/13 10:28:34;;;;;;;2.33;1.70;;;;;;;27.61;32.62;99155.44;5071931;28;20200;-70
2022/09/13 10:31:08;;;;;;;1.80;1.70;;;;;;;27.34;31.26;99161.09;5068839;28;20246;-68
2022/09/13 10:33:38;;;;;;;3.50;1.67;;;;;;;27.60;31.51;99151.13;5052733;28;20255;-69
2022/09/13 10:36:12;;;;;;;3.57;1.60;;;;;;;27.56;31.92;99140.00;5061848;28;20628;-69
2022/09/13 10:38:41;;;;;;;6.70;1.80;;;;;;;27.75;31.85;99139.75;5076815;28;20235;-69
2022/09/13 10:41:11;;;;;;;1.53;1.43;;;;;;;27.84;32.26;99135.16;5070988;28;20245;-68
2022/09/13 10:43:38;;;;;;;6.53;2.63;;;;;;;27.66;31.97;99130.75;5059983;28;20201;-68
2022/09/13 10:46:13;;;;;;;1.73;1.63;;;;;;;27.76;32.32;99125.78;5083723;28;20584;-67
2022/09/13 10:48:54;;;;;;;2.00;1.90;;;;;;;27.83;31.86;99126.19;5067773;28;20278;-68
2022/09/13 10:51:33;;;;;;;1.87;1.70;;;;;;;27.60;31.79;99124.63;5057342;28;20253;-68
2022/09/13 10:54:17;;;;;;;1.00;1.00;;;;;;;27.46;31.91;99123.94;5072144;28;20283;-68
2022/09/13 10:56:45;;;;;;;1.27;1.27;;;;;;;27.60;30.94;99118.38;5058335;28;20195;-68
2022/09/13 10:59:19;;;;;;;1.33;1.33;;;;;;;27.71;32.20;99122.41;5056653;28;20738;-67
2022/09/13 11:02:11;;;;;;;1.60;1.30;;;;;;;27.81;32.15;99119.41;5072334;28;20211;-68
2022/09/13 11:05:05;;;;;;;1.60;1.50;;;;;;;27.91;31.36;99109.00;5024016;28;20195;-69
2022/09/13 11:07:47;;;;;;;1.33;1.23;;;;;;;27.89;31.09;99107.72;5059623;28;20188;-69
2022/09/13 11:10:23;;;;;;;3.03;1.60;;;;;;;27.89;29.74;99110.44;5071864;28;20224;-71
2022/09/13 11:12:58;;;;;;;4.80;1.23;;;;;;;27.98;30.86;99105.81;5070830;28;20641;-68
2022/09/13 11:15:43;;;;;;;1.60;1.50;;;;;;;28.30;29.73;99113.56;5070904;28;20253;-70
2022/09/13 11:18:50;;;;;;;2.90;1.30;;;;;;;28.33;29.29;99110.16;5066673;28;20192;-73
2022/09/13 11:21:31;;;;;;;7.87;2.60;;;;;;;27.83;29.44;99111.72;5025710;28;20192;-69
2022/09/13 11:24:23;;;;;;;2.90;1.87;;;;;;;27.47;29.38;99097.44;5052025;28;20188;-71
2022/09/13 11:27:00;;;;;;;1.80;1.70;;;;;;;27.43;30.94;99094.53;5040935;28;20668;-70
2022/09/13 11:29:43;;;;;;;2.87;1.40;;;;;;;27.16;29.70;99085.72;5047655;28;20194;-76
2022/09/13 11:32:23;;;;;;;2.83;1.40;;;;;;;27.77;29.18;99080.19;5052748;28;20210;-72
2022/09/13 11:35:12;;;;;;;3.70;1.77;;;;;;;28.01;29.06;99083.34;5068725;28;20637;-76
2022/09/13 11:37:50;;;;;;;2.70;1.63;;;;;;;28.04;27.77;99082.66;5067904;28;20301;-79
2022/09/13 11:40:34;;;;;;;2.80;1.43;;;;;;;28.28;27.23;99089.28;5049601;28;20196;-77
2022/09/13 11:43:15;;;;;;;2.10;1.60;;;;;;;28.23;27.63;99091.38;5046489;28;20227;-75
2022/09/13 11:45:47;;;;;;;4.23;1.57;;;;;;;28.00;27.70;99087.16;5046690;28;20220;-76
2022/09/13 11:48:37;;;;;;;4.13;1.43;;;;;;;27.34;28.01;99084.69;5053006;28;20200;-75
2022/09/13 11:51:18;;;;;;;5.40;1.47;;;;;;;27.02;29.01;99079.53;5055224;28;20238;-71
2022/09/13 11:54:03;;;;;;;1.50;1.40;;;;;;;27.08;29.56;99076.41;5051532;28;20251;-73
2022/09/13 11:56:34;;;;;;;1.43;1.10;;;;;;;27.14;29.52;99077.03;5067341;28;20272;-74
2022/09/13 11:59:13;;;;;;;1.23;1.20;;;;;;;26.77;30.11;99074.75;5071964;28;20217;-71